Time;durP1;ratioP1;P1;durP2;ratioP2;P2;SDS_P1;SDS_P2;PMS_P1;PMS_P2;Temp;Humidity;BMP_temperature;BMP_pressure;BME280_temperature;BME280_humidity;BME280_pressure;Samples;Min_cycle;Max_cycle;Signal;HPM_P1;HPM_P2
2021/05/10 00:01:31;;;;;;;3.15;1.30;;;19.80;64.20;;;;;;4956971;29;20111;-64
2021/05/10 00:03:56;;;;;;;2.22;1.20;;;19.20;63.80;;;;;;4956576;29;20090;-64
2021/05/10 00:06:22;;;;;;;1.88;1.50;;;19.20;63.80;;;;;;4955386;29;20027;-64
2021/05/10 00:08:48;;;;;;;2.97;1.08;;;19.20;63.90;;;;;;4956704;29;20087;-64
2021/05/10 00:11:14;;;;;;;1.20;1.10;;;19.10;63.90;;;;;;4956871;29;20070;-64
2021/05/10 00:13:44;;;;;;;1.85;1.33;;;19.40;64.00;;;;;;4956767;29;20039;-64
2021/05/10 00:16:10;;;;;;;;;;;19.30;64.00;;;;;;4957166;29;20449;-64
2021/05/10 00:18:36;;;;;;;1.73;1.20;;;19.30;64.00;;;;;;4956490;29;20001;-64
2021/05/10 00:21:02;;;;;;;1.10;1.00;;;19.70;64.30;;;;;;4956372;29;20392;-64
2021/05/10 00:23:28;;;;;;;1.02;1.02;;;19.20;63.90;;;;;;4939106;29;20082;-64
2021/05/10 00:25:54;;;;;;;1.30;1.20;;;19.30;64.10;;;;;;4956327;29;20031;-64
2021/05/10 00:28:20;;;;;;;1.42;1.20;;;19.40;64.00;;;;;;4956302;29;20407;-64
2021/05/10 00:30:45;;;;;;;1.45;1.10;;;19.20;64.00;;;;;;4956246;29;20503;-64
2021/05/10 00:33:11;;;;;;;1.13;0.93;;;19.20;64.00;;;;;;4956217;28;20038;-64
2021/05/10 00:35:36;;;;;;;1.85;1.20;;;19.70;64.40;;;;;;4955410;29;20031;-64
2021/05/10 00:38:03;;;;;;;1.10;1.00;;;19.20;64.00;;;;;;4938866;29;20039;-64
2021/05/10 00:40:32;;;;;;;1.20;1.10;;;19.10;64.00;;;;;;4956024;29;20030;-64
2021/05/10 00:42:58;;;;;;;2.25;1.27;;;19.30;64.10;;;;;;4938852;29;20023;-64
2021/05/10 00:45:24;;;;;;;1.90;1.23;;;19.10;63.90;;;;;;4956081;29;20416;-64
2021/05/10 00:47:52;;;;;;;0.90;0.90;;;19.10;64.00;;;;;;4955849;29;20114;-64
2021/05/10 00:50:18;;;;;;;1.80;1.10;;;19.00;63.90;;;;;;4955917;29;20035;-64
2021/05/10 00:52:44;;;;;;;0.88;0.88;;;19.00;64.00;;;;;;4955852;29;20035;-64
2021/05/10 00:55:11;;;;;;;1.20;1.00;;;19.30;64.10;;;;;;4955966;29;20122;-64
2021/05/10 00:57:40;;;;;;;1.55;1.00;;;19.10;63.90;;;;;;4956032;29;20465;-64
2021/05/10 01:00:08;;;;;;;0.95;0.85;;;19.80;64.40;;;;;;4955987;29;20034;-64
2021/05/10 01:02:35;;;;;;;1.60;1.40;;;19.20;63.80;;;;;;4955471;29;20082;-64
2021/05/10 01:05:01;;;;;;;0.98;0.98;;;19.30;64.10;;;;;;4955473;29;20050;-65
2021/05/10 01:07:27;;;;;;;1.10;1.00;;;19.40;64.00;;;;;;4955780;29;20435;-64
2021/05/10 01:09:53;;;;;;;0.93;0.88;;;19.10;64.10;;;;;;4955522;29;20027;-64
2021/05/10 01:12:18;;;;;;;1.25;1.00;;;19.20;64.10;;;;;;4955431;29;20031;-64
2021/05/10 01:14:44;;;;;;;1.58;1.00;;;19.30;64.10;;;;;;4955375;29;20039;-64
2021/05/10 01:17:09;;;;;;;1.63;1.25;;;19.20;64.00;;;;;;4955603;29;20025;-64
2021/05/10 01:19:36;;;;;;;1.77;1.30;;;19.00;64.00;;;;;;4955266;29;20058;-64
2021/05/10 01:22:04;;;;;;;1.05;1.05;;;19.20;64.00;;;;;;4955264;29;20031;-64
2021/05/10 01:24:30;;;;;;;1.33;0.90;;;19.00;64.00;;;;;;4955129;29;20030;-64
2021/05/10 01:26:56;;;;;;;1.75;1.17;;;19.00;64.00;;;;;;4955170;29;20039;-64
2021/05/10 01:29:22;;;;;;;2.58;1.02;;;19.10;64.00;;;;;;4937849;29;20020;-64
2021/05/10 01:31:48;;;;;;;1.35;0.98;;;19.00;63.90;;;;;;4955136;29;20034;-64
2021/05/10 01:34:16;;;;;;;1.10;0.85;;;19.10;64.00;;;;;;4954937;29;20030;-64
2021/05/10 01:36:41;;;;;;;1.23;1.13;;;19.10;64.10;;;;;;4954112;29;20060;-64
2021/05/10 01:39:07;;;;;;;1.30;1.00;;;19.00;64.00;;;;;;4937737;29;20055;-64
2021/05/10 01:41:33;;;;;;;1.60;0.95;;;19.00;64.00;;;;;;4954958;29;20031;-64
2021/05/10 01:43:59;;;;;;;0.98;0.98;;;19.00;64.00;;;;;;4954914;29;20431;-64
2021/05/10 01:46:25;;;;;;;1.55;1.08;;;19.80;64.40;;;;;;4954929;28;20019;-64
2021/05/10 01:48:50;;;;;;;1.60;1.50;;;19.00;64.00;;;;;;4954830;29;20098;-64
2021/05/10 01:51:16;;;;;;;1.77;1.08;;;19.20;64.10;;;;;;4954801;29;20035;-64
2021/05/10 01:53:45;;;;;;;1.40;1.23;;;19.00;64.00;;;;;;4954710;29;20030;-64
2021/05/10 01:56:10;;;;;;;1.02;0.80;;;19.00;91.20;;;;;;4954764;29;20423;-64
2021/05/10 01:58:36;;;;;;;1.23;0.90;;;19.60;64.30;;;;;;4937517;29;20023;-64
2021/05/10 02:01:02;;;;;;;1.13;1.02;;;19.00;64.10;;;;;;4954602;29;20043;-64
2021/05/10 02:03:27;;;;;;;1.45;0.95;;;19.20;64.20;;;;;;4954394;29;20051;-64
2021/05/10 02:05:53;;;;;;;1.95;1.15;;;19.00;64.10;;;;;;4954865;29;20086;-64
2021/05/10 02:08:20;;;;;;;1.25;0.95;;;19.00;64.00;;;;;;4954573;29;20488;-64
2021/05/10 02:10:48;;;;;;;1.00;1.00;;;19.00;64.10;;;;;;4954828;29;20089;-64
2021/05/10 02:13:17;;;;;;;1.20;1.05;;;19.10;90.80;;;;;;4954745;29;20085;-64
2021/05/10 02:15:47;;;;;;;1.10;0.93;;;19.40;64.30;;;;;;4954668;29;20031;-64
2021/05/10 02:18:16;;;;;;;1.10;1.00;;;18.90;64.20;;;;;;4954504;29;20023;-64
2021/05/10 02:20:43;;;;;;;1.37;1.10;;;19.10;64.10;;;;;;4954538;29;20047;-64
2021/05/10 02:23:15;;;;;;;0.90;0.90;;;19.00;64.10;;;;;;4954481;29;20028;-64
2021/05/10 02:25:46;;;;;;;1.00;1.00;;;19.00;63.30;;;;;;4954741;29;20023;-64
2021/05/10 02:28:14;;;;;;;1.00;0.90;;;19.20;64.30;;;;;;4954752;29;20396;-64
2021/05/10 02:30:41;;;;;;;3.75;1.30;;;18.90;64.00;;;;;;4937196;29;20027;-64
2021/05/10 02:33:08;;;;;;;1.60;0.90;;;19.10;64.10;;;;;;4954392;29;20035;-64
2021/05/10 02:35:35;;;;;;;1.35;1.00;;;19.10;64.10;;;;;;4954520;29;20043;-64
2021/05/10 02:38:00;;;;;;;1.00;0.90;;;19.00;64.00;;;;;;4954302;29;20027;-64
2021/05/10 02:40:26;;;;;;;1.17;1.08;;;19.10;64.10;;;;;;4954565;29;20024;-64
2021/05/10 02:42:52;;;;;;;1.20;1.00;;;19.20;64.10;;;;;;4954304;29;20498;-64
2021/05/10 02:45:18;;;;;;;1.20;1.08;;;19.20;64.20;;;;;;4954554;29;20019;-64
2021/05/10 02:47:45;;;;;;;1.15;1.05;;;19.20;64.10;;;;;;4954221;28;20118;-64
2021/05/10 02:50:17;;;;;;;1.00;0.98;;;19.80;64.40;;;;;;4954255;29;20031;-63
2021/05/10 02:52:43;;;;;;;1.25;0.90;;;19.20;64.30;;;;;;4954241;29;20031;-64
2021/05/10 02:55:09;;;;;;;2.83;1.25;;;18.90;63.90;;;;;;4954088;29;20502;-64
2021/05/10 02:57:35;;;;;;;1.85;1.20;;;19.00;63.90;;;;;;4955701;28;20023;-63
2021/05/10 03:00:03;;;;;;;0.93;0.93;;;19.00;64.00;;;;;;4957717;29;20030;-64
2021/05/10 03:02:29;;;;;;;0.80;0.80;;;19.00;63.90;;;;;;4957988;29;20023;-63
2021/05/10 03:04:55;;;;;;;0.80;0.80;;;19.20;64.10;;;;;;4957643;29;20408;-64
2021/05/10 03:07:20;;;;;;;1.35;1.00;;;19.30;64.10;;;;;;4957736;29;20069;-64
2021/05/10 03:09:46;;;;;;;0.95;0.90;;;19.20;64.10;;;;;;4957706;29;20027;-64
2021/05/10 03:12:11;;;;;;;0.95;0.95;;;19.70;64.40;;;;;;4957582;29;20062;-63
2021/05/10 03:14:37;;;;;;;1.10;1.00;;;18.90;63.90;;;;;;4957771;29;20042;-63
2021/05/10 03:17:03;;;;;;;1.10;1.00;;;18.90;63.90;;;;;;4957602;29;20027;-63
2021/05/10 03:19:28;;;;;;;2.35;1.10;;;19.70;64.40;;;;;;4940329;29;20066;-63
2021/05/10 03:21:54;;;;;;;3.67;1.00;;;19.00;63.90;;;;;;4957505;29;20440;-64
2021/05/10 03:24:19;;;;;;;1.73;0.95;;;19.10;64.10;;;;;;4957454;29;20027;-63
2021/05/10 03:26:45;;;;;;;1.00;1.00;;;18.90;63.90;;;;;;4957354;29;20106;-64
2021/05/10 03:29:10;;;;;;;1.30;1.20;;;18.80;63.80;;;;;;4957411;29;20023;-63
2021/05/10 03:31:36;;;;;;;1.05;0.93;;;19.10;64.00;;;;;;4957296;29;20449;-64
2021/05/10 03:34:03;;;;;;;0.73;0.70;;;18.90;63.90;;;;;;4957464;29;20452;-64
2021/05/10 03:36:29;;;;;;;1.33;1.00;;;18.90;63.80;;;;;;4957486;29;20019;-64
2021/05/10 03:38:55;;;;;;;2.30;1.20;;;19.10;64.00;;;;;;4957225;29;20020;-64
2021/05/10 03:41:22;;;;;;;1.02;0.90;;;18.90;64.00;;;;;;4957151;29;20034;-64
2021/05/10 03:43:48;;;;;;;1.15;0.90;;;19.10;64.00;;;;;;4957029;29;20469;-64
2021/05/10 03:46:14;;;;;;;0.80;0.80;;;19.70;64.40;;;;;;4957108;29;20507;-64
2021/05/10 03:48:40;;;;;;;0.80;0.80;;;18.80;63.90;;;;;;4957025;29;20059;-64
2021/05/10 03:51:05;;;;;;;1.20;0.95;;;18.80;63.80;;;;;;4939699;29;20030;-64
2021/05/10 03:53:31;;;;;;;1.40;1.10;;;18.90;63.80;;;;;;4957028;29;20475;-64
2021/05/10 03:55:56;;;;;;;2.25;1.00;;;19.00;63.90;;;;;;4956805;29;20508;-64
2021/05/10 03:58:22;;;;;;;0.95;0.85;;;19.80;64.30;;;;;;4956740;29;20558;-64
2021/05/10 04:00:47;;;;;;;1.23;0.98;;;19.60;64.40;;;;;;4957035;29;20050;-63
2021/05/10 04:03:15;;;;;;;1.10;1.00;;;18.90;63.90;;;;;;4956706;29;20465;-64
2021/05/10 04:13:48;;;;;;;1.95;1.15;;;19.10;63.80;;;;;;4956917;29;20039;-63
2021/05/10 04:16:13;;;;;;;1.42;0.77;;;18.90;63.10;;;;;;4956727;29;20377;-63
2021/05/10 04:18:39;;;;;;;0.68;0.68;;;18.80;63.80;;;;;;4956653;29;20025;-64
2021/05/10 04:21:05;;;;;;;1.00;0.88;;;18.80;63.80;;;;;;4956575;29;20035;-64
2021/05/10 04:23:30;;;;;;;2.35;0.85;;;19.10;63.90;;;;;;4956576;29;20020;-64
2021/05/10 04:25:56;;;;;;;0.80;0.77;;;18.90;63.80;;;;;;4955677;29;20055;-63
2021/05/10 04:28:23;;;;;;;0.90;0.90;;;18.80;63.80;;;;;;4956493;29;20067;-63
2021/05/10 04:30:50;;;;;;;1.10;1.00;;;18.90;63.80;;;;;;4956427;29;20432;-63
2021/05/10 04:33:24;;;;;;;1.35;0.90;;;20.00;64.40;;;;;;4956592;29;20069;-64
2021/05/10 04:35:50;;;;;;;1.27;1.02;;;18.80;63.80;;;;;;4956561;29;20027;-64
2021/05/10 04:38:15;;;;;;;1.00;1.00;;;19.40;64.10;;;;;;4956270;29;20038;-64
2021/05/10 04:40:41;;;;;;;1.35;0.70;;;18.70;63.60;;;;;;4956190;29;20111;-64
2021/05/10 04:43:07;;;;;;;0.73;0.70;;;19.10;63.90;;;;;;4956397;29;20024;-64
2021/05/10 04:45:34;;;;;;;0.90;0.90;;;18.90;63.70;;;;;;4956373;29;20050;-64
2021/05/10 04:47:59;;;;;;;2.00;0.90;;;18.80;63.70;;;;;;4955985;29;20035;-64
2021/05/10 04:50:25;;;;;;;0.98;0.90;;;19.50;64.20;;;;;;4956006;29;20365;-64
2021/05/10 04:52:50;;;;;;;1.05;0.95;;;18.80;63.70;;;;;;4955772;29;20035;-64
2021/05/10 04:55:16;;;;;;;1.08;0.98;;;18.90;63.80;;;;;;4955861;29;20039;-64
2021/05/10 04:57:44;;;;;;;1.00;0.77;;;18.80;63.70;;;;;;4955742;29;20030;-64
2021/05/10 05:00:12;;;;;;;1.75;0.63;;;19.40;64.00;;;;;;4955647;29;20030;-64
2021/05/10 05:02:38;;;;;;;1.20;1.10;;;18.90;63.50;;;;;;4955522;29;20499;-64
2021/05/10 05:05:05;;;;;;;0.90;0.90;;;18.90;63.80;;;;;;4955506;29;20051;-64
2021/05/10 05:07:31;;;;;;;1.67;1.00;;;18.80;63.50;;;;;;4955395;29;20032;-64
2021/05/10 05:09:56;;;;;;;1.10;0.82;;;18.70;63.60;;;;;;4955835;29;20034;-64
2021/05/10 05:12:22;;;;;;;1.00;0.88;;;18.70;63.60;;;;;;4955468;29;20480;-64
2021/05/10 05:14:48;;;;;;;0.95;0.80;;;18.80;63.60;;;;;;4955642;29;20049;-64
2021/05/10 05:17:14;;;;;;;0.73;0.70;;;18.80;63.60;;;;;;4955729;29;20016;-64
2021/05/10 05:19:40;;;;;;;1.25;1.10;;;18.80;63.80;;;;;;4955311;28;20031;-63
2021/05/10 05:22:07;;;;;;;1.75;1.30;;;18.80;63.60;;;;;;4938057;29;20074;-63
2021/05/10 05:24:33;;;;;;;1.60;1.02;;;18.90;63.90;;;;;;4955596;29;20471;-63
2021/05/10 05:26:59;;;;;;;1.92;1.00;;;18.90;63.70;;;;;;4955254;29;20038;-63
2021/05/10 05:29:24;;;;;;;2.20;1.17;;;18.70;63.50;;;;;;4955258;29;20101;-63
2021/05/10 05:31:50;;;;;;;0.93;0.93;;;18.80;63.60;;;;;;4955451;29;20047;-63
2021/05/10 05:34:17;;;;;;;1.45;0.80;;;18.90;63.90;;;;;;4955078;29;20046;-63
2021/05/10 05:36:43;;;;;;;3.08;1.00;;;19.40;64.20;;;;;;4955040;29;20110;-64
2021/05/10 05:39:09;;;;;;;1.40;1.30;;;19.50;64.40;;;;;;4955056;29;20154;-63
2021/05/10 05:41:35;;;;;;;2.47;0.77;;;;;;;;;;4955119;29;20019;-63
2021/05/10 05:44:03;;;;;;;2.08;1.00;;;18.80;62.50;;;;;;4937832;29;20027;-64
2021/05/10 05:46:30;;;;;;;1.73;1.25;;;18.80;63.90;;;;;;4937801;29;20035;-63
2021/05/10 05:48:56;;;;;;;2.03;0.90;;;18.70;63.80;;;;;;4937692;29;20026;-63
2021/05/10 05:51:23;;;;;;;3.55;1.20;;;19.00;64.30;;;;;;4954997;29;20030;-63
2021/05/10 05:53:52;;;;;;;1.75;0.77;;;18.90;63.90;;;;;;4954837;29;20110;-64
2021/05/10 05:56:18;;;;;;;1.48;0.85;;;18.70;64.00;;;;;;4954735;29;20031;-63
2021/05/10 05:58:43;;;;;;;2.60;1.23;;;18.70;64.30;;;;;;4937656;29;20026;-64
2021/05/10 06:01:09;;;;;;;1.38;0.93;;;18.80;90.90;;;;;;4954598;29;20027;-64
2021/05/10 06:03:34;;;;;;;5.70;1.30;;;18.70;64.40;;;;;;4954299;29;20043;-63
2021/05/10 06:06:00;;;;;;;2.28;1.42;;;18.70;64.30;;;;;;4953795;29;20027;-64
2021/05/10 06:08:25;;;;;;;3.60;1.00;;;18.90;64.40;;;;;;4935723;29;20034;-63
2021/05/10 06:10:51;;;;;;;3.70;0.90;;;18.70;64.30;;;;;;4953746;29;20027;-65
2021/05/10 06:13:17;;;;;;;1.58;0.90;;;18.80;64.40;;;;;;4953813;29;20029;-65
2021/05/10 06:15:42;;;;;;;1.60;0.98;;;18.80;64.30;;;;;;4953706;29;20042;-65
2021/05/10 06:18:09;;;;;;;1.60;1.10;;;18.80;64.40;;;;;;4953764;29;20445;-65
2021/05/10 06:20:35;;;;;;;1.67;1.10;;;18.80;64.30;;;;;;4953740;29;20041;-65
2021/05/10 06:23:04;;;;;;;1.25;0.90;;;18.90;64.30;;;;;;4936459;29;20403;-64
2021/05/10 06:25:30;;;;;;;1.80;1.30;;;18.70;64.30;;;;;;4953803;29;20027;-64
2021/05/10 06:27:56;;;;;;;1.65;0.98;;;18.70;64.20;;;;;;4953942;29;20020;-64
2021/05/10 06:30:21;;;;;;;0.82;0.80;;;18.80;64.20;;;;;;4953661;29;20464;-64
2021/05/10 06:32:50;;;;;;;2.13;1.20;;;18.80;64.10;;;;;;4937920;29;20023;-64
2021/05/10 06:35:18;;;;;;;1.83;1.20;;;19.30;63.80;;;;;;4939715;29;20035;-64
2021/05/10 06:37:44;;;;;;;1.80;1.00;;;18.80;64.20;;;;;;4957004;29;20034;-65
2021/05/10 06:40:10;;;;;;;1.00;0.90;;;18.70;64.00;;;;;;4956839;29;20027;-65
2021/05/10 06:42:37;;;;;;;1.67;1.02;;;18.80;64.00;;;;;;4957035;29;20038;-65
2021/05/10 06:45:07;;;;;;;1.80;0.98;;;18.80;64.30;;;;;;4956782;29;20027;-66
2021/05/10 06:47:33;;;;;;;0.98;0.85;;;18.80;64.00;;;;;;4956877;29;20020;-65
2021/05/10 06:49:59;;;;;;;2.25;0.70;;;18.70;64.10;;;;;;4956669;29;20035;-65
2021/05/10 06:52:25;;;;;;;6.72;1.10;;;18.70;64.10;;;;;;4956635;29;20027;-65
2021/05/10 06:54:50;;;;;;;2.25;0.68;;;18.80;64.20;;;;;;4956505;29;20115;-63
2021/05/10 06:57:16;;;;;;;2.95;0.88;;;18.70;64.10;;;;;;4956572;29;20033;-64
2021/05/10 06:59:42;;;;;;;4.32;1.17;;;18.90;64.40;;;;;;4956789;29;20030;-64
2021/05/10 07:02:08;;;;;;;1.67;0.70;;;18.70;64.20;;;;;;4939304;29;20027;-66
2021/05/10 07:04:34;;;;;;;6.50;0.80;;;18.70;64.20;;;;;;4926268;29;901293;-66
2021/05/10 07:07:00;;;;;;;3.80;1.13;;;18.80;64.30;;;;;;4957912;29;20023;-66
2021/05/10 07:09:25;;;;;;;1.95;0.70;;;18.80;64.40;;;;;;4957612;29;20133;-66
2021/05/10 07:11:51;;;;;;;2.47;0.90;;;18.70;64.20;;;;;;4957521;29;20030;-66
2021/05/10 07:14:17;;;;;;;2.00;1.10;;;18.90;64.30;;;;;;4957477;29;20066;-66
2021/05/10 07:16:43;;;;;;;3.53;0.98;;;18.80;64.40;;;;;;4957718;29;20090;-66
2021/05/10 07:19:08;;;;;;;1.58;1.00;;;19.00;64.50;;;;;;4957740;29;20027;-66
2021/05/10 07:21:34;;;;;;;1.00;0.60;;;19.00;64.60;;;;;;4957648;29;20118;-65
2021/05/10 07:23:59;;;;;;;2.28;0.70;;;18.90;64.60;;;;;;4940163;29;20019;-66
2021/05/10 07:26:25;;;;;;;2.97;1.08;;;18.70;64.40;;;;;;4957384;29;20019;-66
2021/05/10 07:28:51;;;;;;;1.38;0.85;;;18.80;91.00;;;;;;4957464;29;20090;-66
2021/05/10 07:31:16;;;;;;;3.50;0.88;;;18.80;64.50;;;;;;4957226;29;20068;-66
2021/05/10 07:33:42;;;;;;;2.38;0.70;;;18.70;64.40;;;;;;4957233;29;20040;-66
2021/05/10 07:36:09;;;;;;;2.50;1.00;;;19.00;64.60;;;;;;4957164;29;20039;-66
2021/05/10 07:38:35;;;;;;;2.72;0.90;;;18.80;64.50;;;;;;4957453;29;20435;-66
2021/05/10 07:41:00;;;;;;;2.38;0.70;;;19.00;64.50;;;;;;4957093;29;20043;-66
2021/05/10 07:43:26;;;;;;;3.03;0.82;;;18.90;64.60;;;;;;4956513;28;20669;-66
2021/05/10 07:45:52;;;;;;;2.80;0.88;;;18.70;64.40;;;;;;4957019;29;20094;-66
2021/05/10 07:48:17;;;;;;;2.95;0.90;;;18.80;64.60;;;;;;4939595;29;20023;-66
2021/05/10 07:50:43;;;;;;;1.30;0.65;;;19.50;64.80;;;;;;4939666;29;20102;-66
2021/05/10 07:53:09;;;;;;;1.00;0.90;;;18.80;64.40;;;;;;4939662;29;20035;-66
2021/05/10 07:55:37;;;;;;;1.73;0.80;;;18.80;64.40;;;;;;4956867;29;20062;-66
2021/05/10 07:58:02;;;;;;;2.00;0.80;;;19.60;64.70;;;;;;4939547;29;20054;-66
2021/05/10 08:00:40;;;;;;;2.10;1.00;;;18.80;64.30;;;;;;4956719;29;20059;-66
2021/05/10 08:03:07;;;;;;;1.02;0.70;;;19.20;64.30;;;;;;4956523;29;20023;-66
2021/05/10 08:05:37;;;;;;;1.60;0.80;;;18.90;64.30;;;;;;4956793;29;20038;-66
2021/05/10 08:08:03;;;;;;;1.92;0.80;;;18.90;64.40;;;;;;4956996;29;20046;-66
2021/05/10 08:10:29;;;;;;;0.60;0.60;;;18.90;64.10;;;;;;4956595;29;20035;-66
2021/05/10 08:12:55;;;;;;;1.40;0.85;;;18.90;64.20;;;;;;4956605;29;20075;-66
2021/05/10 08:15:20;;;;;;;1.38;0.77;;;19.10;64.40;;;;;;4956376;29;20114;-66
2021/05/10 08:17:46;;;;;;;2.30;0.80;;;19.20;64.40;;;;;;4939233;29;20126;-66
2021/05/10 08:20:12;;;;;;;2.67;0.70;;;18.80;64.10;;;;;;4939229;29;20055;-66
2021/05/10 08:22:38;;;;;;;0.90;0.80;;;18.80;64.20;;;;;;4956672;29;20045;-66
2021/05/10 08:25:05;;;;;;;2.60;0.60;;;18.80;64.10;;;;;;4955243;29;20515;-66
2021/05/10 08:27:33;;;;;;;1.90;0.63;;;18.90;64.00;;;;;;4956582;29;20028;-66
2021/05/10 08:29:59;;;;;;;2.28;0.82;;;18.90;90.80;;;;;;4956345;29;20019;-66
2021/05/10 08:32:24;;;;;;;1.85;1.00;;;18.80;64.10;;;;;;4956517;29;20110;-66
2021/05/10 08:34:50;;;;;;;0.68;0.60;;;19.10;64.20;;;;;;4956079;29;20419;-66
2021/05/10 08:37:16;;;;;;;0.77;0.75;;;18.90;64.20;;;;;;4956329;29;20058;-66
2021/05/10 08:39:42;;;;;;;1.17;0.60;;;19.00;64.10;;;;;;4956097;29;20054;-66
2021/05/10 08:42:08;;;;;;;1.35;0.70;;;18.90;64.20;;;;;;4955980;29;20476;-66
2021/05/10 08:44:34;;;;;;;1.58;1.02;;;18.90;64.00;;;;;;4955999;29;20042;-66
2021/05/10 08:46:59;;;;;;;1.13;0.80;;;18.90;64.00;;;;;;4955925;29;20023;-66
2021/05/10 08:49:25;;;;;;;2.05;0.90;;;18.80;63.90;;;;;;4955817;29;20042;-66
2021/05/10 08:51:52;;;;;;;0.88;0.70;;;19.30;64.30;;;;;;4955758;29;20472;-66
2021/05/10 08:54:25;;;;;;;1.52;1.10;;;19.10;64.10;;;;;;4955664;28;20031;-66
2021/05/10 08:56:52;;;;;;;1.85;1.00;;;19.00;64.20;;;;;;4938124;29;20039;-67
2021/05/10 08:59:22;;;;;;;1.05;0.63;;;19.30;64.10;;;;;;4938465;29;20055;-66
2021/05/10 09:01:49;;;;;;;0.88;0.57;;;18.90;64.00;;;;;;4954255;29;20113;-67
2021/05/10 09:04:16;;;;;;;2.78;0.95;;;19.70;64.40;;;;;;4954250;29;20047;-67
2021/05/10 09:06:42;;;;;;;3.03;0.82;;;18.90;64.20;;;;;;4954470;29;20027;-67
2021/05/10 09:09:09;;;;;;;2.95;0.85;;;19.00;64.30;;;;;;4938253;29;20062;-67
2021/05/10 09:11:51;;;;;;;4.35;0.90;;;18.90;64.20;;;;;;4955331;29;20346;-67
2021/05/10 09:14:30;;;;;;;4.05;1.00;;;19.00;64.20;;;;;;4955268;29;20027;-67
2021/05/10 09:16:55;;;;;;;4.65;0.75;;;19.00;64.40;;;;;;4955275;29;20063;-67
2021/05/10 09:19:39;;;;;;;2.08;1.00;;;19.10;64.50;;;;;;4955393;29;20046;-67
2021/05/10 09:22:04;;;;;;;5.30;1.20;;;19.00;64.40;;;;;;4955275;29;20025;-63
2021/05/10 09:24:30;;;;;;;3.88;0.90;;;19.20;64.80;;;;;;4955166;29;20106;-66
2021/05/10 09:26:56;;;;;;;7.85;1.20;;;19.00;64.70;;;;;;4955168;29;20040;-67
2021/05/10 09:29:27;;;;;;;4.53;1.40;;;19.10;64.80;;;;;;4955106;29;20023;-68
2021/05/10 09:31:53;;;;;;;7.03;1.60;;;19.30;66.30;;;;;;4955029;29;20035;-68
2021/05/10 09:34:19;;;;;;;4.13;1.30;;;19.70;66.40;;;;;;4955204;29;20377;-68
2021/05/10 09:36:45;;;;;;;4.93;1.60;;;19.00;66.00;;;;;;4955010;29;20030;-68
2021/05/10 09:39:33;;;;;;;3.60;1.65;;;19.10;66.80;;;;;;4954938;29;20384;-68
2021/05/10 09:42:00;;;;;;;4.80;1.73;;;19.20;66.10;;;;;;4954891;29;20110;-68
2021/05/10 09:44:43;;;;;;;5.93;1.40;;;19.10;66.90;;;;;;4955102;29;20023;-68
2021/05/10 09:47:08;;;;;;;4.55;1.38;;;19.40;67.40;;;;;;4954719;29;20081;-69
2021/05/10 09:49:45;;;;;;;9.15;2.00;;;19.00;67.10;;;;;;4954778;29;20102;-68
2021/05/10 09:52:24;;;;;;;2.63;1.38;;;19.90;68.00;;;;;;4954843;29;20429;-67
2021/05/10 09:54:57;;;;;;;3.45;1.80;;;19.10;67.60;;;;;;4954841;29;20035;-67
2021/05/10 09:57:23;;;;;;;5.75;1.70;;;19.50;67.60;;;;;;4954689;29;20464;-65
2021/05/10 10:00:15;;;;;;;5.35;1.80;;;19.40;67.10;;;;;;4953395;29;20027;-66
2021/05/10 10:02:40;;;;;;;3.30;1.85;;;19.30;66.10;;;;;;4946578;29;20039;-66
2021/05/10 10:05:08;;;;;;;1.42;1.23;;;19.20;66.80;;;;;;4954419;29;20070;-66
2021/05/10 10:07:38;;;;;;;3.95;1.73;;;19.20;66.40;;;;;;4954318;28;20047;-66
2021/05/10 10:10:04;;;;;;;3.63;1.92;;;19.10;66.60;;;;;;4937392;29;20082;-66
2021/05/10 10:12:30;;;;;;;2.72;1.50;;;19.20;66.40;;;;;;4954242;29;20546;-67
2021/05/10 10:14:56;;;;;;;2.95;1.35;;;19.90;66.80;;;;;;4954464;29;20395;-66
2021/05/10 10:17:22;;;;;;;6.45;1.95;;;19.10;66.10;;;;;;4953293;29;20035;-66
2021/05/10 10:19:49;;;;;;;2.13;1.35;;;19.10;66.20;;;;;;4954723;29;20101;-67
2021/05/10 10:22:16;;;;;;;2.45;1.23;;;19.20;66.20;;;;;;4954706;29;20027;-66
2021/05/10 10:24:45;;;;;;;3.95;1.40;;;19.40;66.10;;;;;;4954649;29;20419;-67
2021/05/10 10:27:13;;;;;;;2.65;1.23;;;19.20;65.90;;;;;;4954321;29;20380;-67
2021/05/10 10:29:41;;;;;;;4.53;1.45;;;19.20;65.80;;;;;;4954345;29;20103;-67
2021/05/10 10:32:07;;;;;;;5.50;1.63;;;19.30;65.80;;;;;;4954573;29;20368;-66
2021/05/10 10:34:35;;;;;;;5.28;1.42;;;19.30;65.60;;;;;;4954223;29;20035;-67
2021/05/10 10:37:03;;;;;;;6.70;1.10;;;19.10;65.50;;;;;;4954564;29;20395;-67
2021/05/10 10:39:30;;;;;;;1.95;1.20;;;19.20;65.40;;;;;;4954542;29;20027;-67
2021/05/10 10:42:09;;;;;;;2.75;1.10;;;19.50;65.50;;;;;;4954177;29;20016;-66
2021/05/10 10:44:35;;;;;;;2.58;0.95;;;19.20;64.50;;;;;;4954477;29;20016;-67
2021/05/10 10:47:02;;;;;;;3.55;1.17;;;19.30;65.20;;;;;;4954167;29;20037;-66
2021/05/10 10:49:35;;;;;;;2.97;0.82;;;19.20;65.10;;;;;;4954178;29;20023;-67
2021/05/10 10:52:02;;;;;;;3.03;1.27;;;19.30;64.30;;;;;;4954199;29;20031;-66
2021/05/10 10:54:29;;;;;;;3.42;0.80;;;19.20;64.90;;;;;;4954108;29;20035;-67
2021/05/10 10:57:00;;;;;;;1.55;0.75;;;19.20;64.90;;;;;;4936922;29;20024;-66
2021/05/10 10:59:36;;;;;;;1.17;0.95;;;19.30;65.30;;;;;;4954149;29;20118;-66
2021/05/10 11:02:21;;;;;;;1.63;1.00;;;20.10;66.20;;;;;;4954229;29;20058;-66
2021/05/10 11:05:15;;;;;;;4.60;1.13;;;19.40;66.40;;;;;;4953792;29;20126;-68
2021/05/10 11:08:15;;;;;;;2.17;1.13;;;19.40;68.40;;;;;;4953978;29;20055;-67
2021/05/10 11:10:51;;;;;;;2.15;1.30;;;19.40;69.20;;;;;;4954156;29;20094;-67
2021/05/10 11:13:26;;;;;;;2.83;1.23;;;19.50;69.60;;;;;;4954002;29;20027;-67
2021/05/10 11:15:52;;;;;;;2.42;0.85;;;19.50;69.00;;;;;;4953893;29;20505;-67
2021/05/10 11:18:43;;;;;;;5.18;1.25;;;19.10;69.40;;;;;;4954753;28;20019;-68
2021/05/10 11:21:29;;;;;;;2.35;1.10;;;19.40;69.20;;;;;;4957351;29;20159;-67
2021/05/10 11:24:01;;;;;;;2.03;1.02;;;19.40;70.70;;;;;;4957260;29;20090;-66
2021/05/10 11:26:45;;;;;;;5.57;1.00;;;19.40;69.10;;;;;;4940056;29;20233;-68
2021/05/10 11:29:33;;;;;;;1.52;1.05;;;19.40;69.50;;;;;;4957299;29;20023;-68
2021/05/10 11:32:07;;;;;;;2.15;0.95;;;19.40;70.90;;;;;;4957179;29;20031;-68
2021/05/10 11:34:36;;;;;;;2.05;1.20;;;19.40;71.30;;;;;;4957125;29;20063;-68
2021/05/10 11:37:02;;;;;;;3.45;1.02;;;19.40;71.20;;;;;;4957395;29;20105;-68
2021/05/10 11:39:33;;;;;;;1.80;1.13;;;19.40;71.70;;;;;;4957127;29;20031;-68
2021/05/10 11:42:05;;;;;;;2.63;0.80;;;19.40;71.20;;;;;;4957430;29;20054;-68
2021/05/10 11:44:34;;;;;;;1.75;1.00;;;19.40;72.60;;;;;;4939812;29;20023;-68
2021/05/10 11:47:02;;;;;;;2.03;1.10;;;19.70;72.90;;;;;;4957084;29;20035;-66
2021/05/10 11:49:28;;;;;;;2.30;1.00;;;19.40;72.50;;;;;;4956883;29;20074;-66
2021/05/10 11:52:05;;;;;;;1.02;0.90;;;19.70;72.80;;;;;;4957049;29;20031;-66
2021/05/10 11:54:30;;;;;;;1.40;0.90;;;20.20;73.30;;;;;;4956907;29;20024;-66
2021/05/10 11:56:59;;;;;;;0.93;0.80;;;19.40;72.80;;;;;;4956442;29;20042;-67
2021/05/10 12:02:23;;;;;;;1.40;1.23;;;19.50;73.10;;;;;;4957080;29;20058;-66
2021/05/10 12:04:51;;;;;;;2.00;1.00;;;19.40;72.40;;;;;;4956464;29;20423;-67
2021/05/10 12:07:18;;;;;;;2.25;1.00;;;19.40;73.10;;;;;;4956640;29;20472;-66
2021/05/10 12:09:48;;;;;;;0.90;0.90;;;19.50;73.40;;;;;;4956630;29;20061;-66
2021/05/10 12:12:14;;;;;;;1.42;0.85;;;19.50;73.60;;;;;;4939430;29;20120;-67
2021/05/10 12:14:44;;;;;;;1.55;1.30;;;20.10;74.00;;;;;;4956733;29;20063;-67
2021/05/10 12:17:12;;;;;;;1.75;0.98;;;19.40;73.50;;;;;;4956414;29;20027;-65
2021/05/10 12:20:06;;;;;;;2.08;1.33;;;19.40;73.50;;;;;;4956414;29;20083;-66
2021/05/10 12:22:43;;;;;;;1.23;0.73;;;19.50;72.80;;;;;;4956446;29;20043;-66
2021/05/10 12:25:29;;;;;;;1.67;1.00;;;19.50;72.80;;;;;;4956349;29;20027;-66
2021/05/10 12:28:12;;;;;;;3.25;1.27;;;19.50;72.80;;;;;;4956392;29;20488;-65
2021/05/10 12:30:59;;;;;;;1.83;1.20;;;19.50;73.00;;;;;;4955347;28;20020;-66
2021/05/10 12:33:26;;;;;;;2.65;1.55;;;19.50;73.80;;;;;;4938944;29;20085;-66
2021/05/10 12:35:56;;;;;;;2.45;1.42;;;19.50;73.70;;;;;;4938732;29;20499;-65
2021/05/10 12:38:38;;;;;;;2.38;1.50;;;19.50;73.90;;;;;;4938882;29;20027;-67
2021/05/10 12:41:06;;;;;;;3.80;1.55;;;19.50;73.10;;;;;;4955911;29;20027;-67
2021/05/10 12:43:43;;;;;;;3.03;1.52;;;19.50;73.90;;;;;;4955874;29;20024;-65
2021/05/10 12:46:09;;;;;;;4.20;1.98;;;19.60;73.90;;;;;;4955917;29;20054;-67
2021/05/10 12:48:39;;;;;;;4.03;1.85;;;19.70;75.50;;;;;;4955843;29;20125;-67
2021/05/10 12:51:16;;;;;;;3.28;1.60;;;19.50;73.80;;;;;;4955880;29;20024;-67
2021/05/10 12:53:54;;;;;;;3.78;1.90;;;19.90;74.10;;;;;;4955682;29;20023;-67
2021/05/10 12:56:22;;;;;;;4.30;2.35;;;19.70;74.00;;;;;;4955715;29;20500;-67
2021/05/10 12:58:50;;;;;;;2.60;1.45;;;19.60;73.70;;;;;;4955888;29;20158;-66
2021/05/10 13:01:31;;;;;;;3.25;2.03;;;19.70;73.80;;;;;;4955621;29;20420;-66
2021/05/10 13:04:04;;;;;;;6.40;1.88;;;19.60;73.00;;;;;;4955455;29;20099;-67